sensor_id;sensor_type;location;lat;lon;timestamp;P1;durP1;ratioP1;P2;durP2;ratioP2
32535;SDS011;18974;50.838;4.636;2023-09-18T00:00:50;10.30;;;7.32;;
32535;SDS011;18974;50.838;4.636;2023-09-18T00:03:16;12.07;;;6.75;;
32535;SDS011;18974;50.838;4.636;2023-09-18T00:05:50;9.00;;;7.07;;
32535;SDS011;18974;50.838;4.636;2023-09-18T00:08:16;10.48;;;7.20;;
32535;SDS011;18974;50.838;4.636;2023-09-18T00:10:46;9.38;;;7.80;;
32535;SDS011;18974;50.838;4.636;2023-09-18T00:13:17;14.32;;;9.40;;
32535;SDS011;18974;50.838;4.636;2023-09-18T00:15:43;14.45;;;8.98;;
32535;SDS011;18974;50.838;4.636;2023-09-18T00:18:11;11.85;;;8.75;;
32535;SDS011;18974;50.838;4.636;2023-09-18T00:20:38;11.65;;;9.27;;
32535;SDS011;18974;50.838;4.636;2023-09-18T00:23:06;13.65;;;9.73;;
32535;SDS011;18974;50.838;4.636;2023-09-18T00:25:33;16.75;;;9.25;;
32535;SDS011;18974;50.838;4.636;2023-09-18T00:27:58;18.60;;;8.80;;
32535;SDS011;18974;50.838;4.636;2023-09-18T00:30:24;16.13;;;8.73;;
32535;SDS011;18974;50.838;4.636;2023-09-18T00:32:50;13.38;;;8.63;;
32535;SDS011;18974;50.838;4.636;2023-09-18T00:35:16;13.80;;;9.05;;
32535;SDS011;18974;50.838;4.636;2023-09-18T00:37:42;13.95;;;9.88;;
32535;SDS011;18974;50.838;4.636;2023-09-18T00:40:08;10.73;;;9.20;;
32535;SDS011;18974;50.838;4.636;2023-09-18T00:42:34;10.98;;;8.75;;
32535;SDS011;18974;50.838;4.636;2023-09-18T00:45:01;16.85;;;9.48;;
32535;SDS011;18974;50.838;4.636;2023-09-18T00:47:26;15.30;;;9.65;;
32535;SDS011;18974;50.838;4.636;2023-09-18T00:49:53;13.82;;;9.45;;
32535;SDS011;18974;50.838;4.636;2023-09-18T00:52:20;14.10;;;9.55;;
32535;SDS011;18974;50.838;4.636;2023-09-18T00:54:47;17.45;;;8.25;;
32535;SDS011;18974;50.838;4.636;2023-09-18T00:57:13;11.23;;;7.30;;
32535;SDS011;18974;50.838;4.636;2023-09-18T00:59:39;19.08;;;8.57;;
32535;SDS011;18974;50.838;4.636;2023-09-18T01:02:06;18.55;;;9.07;;
32535;SDS011;18974;50.838;4.636;2023-09-18T01:04:32;15.63;;;9.35;;
32535;SDS011;18974;50.838;4.636;2023-09-18T01:06:59;21.85;;;9.98;;
32535;SDS011;18974;50.838;4.636;2023-09-18T01:09:28;18.40;;;10.40;;
32535;SDS011;18974;50.838;4.636;2023-09-18T01:12:02;17.17;;;9.90;;
32535;SDS011;18974;50.838;4.636;2023-09-18T01:15:10;19.05;;;10.70;;
32535;SDS011;18974;50.838;4.636;2023-09-18T01:17:40;17.85;;;10.23;;
32535;SDS011;18974;50.838;4.636;2023-09-18T01:20:10;20.42;;;11.23;;
32535;SDS011;18974;50.838;4.636;2023-09-18T01:22:36;20.05;;;10.85;;
32535;SDS011;18974;50.838;4.636;2023-09-18T01:25:02;20.08;;;11.32;;
32535;SDS011;18974;50.838;4.636;2023-09-18T01:27:28;16.40;;;11.05;;
32535;SDS011;18974;50.838;4.636;2023-09-18T01:29:54;19.27;;;11.73;;
32535;SDS011;18974;50.838;4.636;2023-09-18T01:32:20;19.98;;;10.80;;
32535;SDS011;18974;50.838;4.636;2023-09-18T01:34:50;18.83;;;10.77;;
32535;SDS011;18974;50.838;4.636;2023-09-18T01:37:20;18.80;;;10.88;;
32535;SDS011;18974;50.838;4.636;2023-09-18T01:39:49;14.15;;;9.80;;
32535;SDS011;18974;50.838;4.636;2023-09-18T01:42:16;18.40;;;10.40;;
32535;SDS011;18974;50.838;4.636;2023-09-18T01:44:42;15.70;;;10.15;;
32535;SDS011;18974;50.838;4.636;2023-09-18T01:47:11;15.82;;;10.48;;
32535;SDS011;18974;50.838;4.636;2023-09-18T01:49:39;17.33;;;10.80;;
32535;SDS011;18974;50.838;4.636;2023-09-18T01:52:06;22.40;;;11.35;;
32535;SDS011;18974;50.838;4.636;2023-09-18T01:54:33;23.95;;;11.75;;
32535;SDS011;18974;50.838;4.636;2023-09-18T01:57:00;20.45;;;11.40;;
32535;SDS011;18974;50.838;4.636;2023-09-18T01:59:26;20.13;;;11.63;;
32535;SDS011;18974;50.838;4.636;2023-09-18T02:01:52;18.42;;;11.63;;
32535;SDS011;18974;50.838;4.636;2023-09-18T02:04:18;23.35;;;11.63;;
32535;SDS011;18974;50.838;4.636;2023-09-18T02:06:45;19.20;;;11.85;;
32535;SDS011;18974;50.838;4.636;2023-09-18T02:09:12;22.60;;;11.95;;
32535;SDS011;18974;50.838;4.636;2023-09-18T02:11:39;21.77;;;12.23;;
32535;SDS011;18974;50.838;4.636;2023-09-18T02:14:06;21.75;;;12.63;;
32535;SDS011;18974;50.838;4.636;2023-09-18T02:16:34;21.55;;;12.65;;
32535;SDS011;18974;50.838;4.636;2023-09-18T02:19:02;21.70;;;12.57;;
32535;SDS011;18974;50.838;4.636;2023-09-18T02:21:29;15.55;;;11.05;;
32535;SDS011;18974;50.838;4.636;2023-09-18T02:23:55;25.35;;;12.75;;
32535;SDS011;18974;50.838;4.636;2023-09-18T02:26:21;20.92;;;12.50;;
32535;SDS011;18974;50.838;4.636;2023-09-18T02:28:47;26.17;;;13.07;;
32535;SDS011;18974;50.838;4.636;2023-09-18T02:31:13;24.90;;;12.88;;
32535;SDS011;18974;50.838;4.636;2023-09-18T02:33:39;19.60;;;12.02;;
32535;SDS011;18974;50.838;4.636;2023-09-18T02:36:06;16.02;;;12.20;;
32535;SDS011;18974;50.838;4.636;2023-09-18T02:38:32;19.73;;;12.27;;
32535;SDS011;18974;50.838;4.636;2023-09-18T02:40:59;20.73;;;11.63;;
32535;SDS011;18974;50.838;4.636;2023-09-18T02:43:25;23.05;;;11.95;;
32535;SDS011;18974;50.838;4.636;2023-09-18T02:45:50;18.30;;;11.68;;
32535;SDS011;18974;50.838;4.636;2023-09-18T02:48:17;19.80;;;12.02;;
32535;SDS011;18974;50.838;4.636;2023-09-18T02:50:43;19.13;;;11.68;;
32535;SDS011;18974;50.838;4.636;2023-09-18T02:53:20;20.75;;;12.93;;
32535;SDS011;18974;50.838;4.636;2023-09-18T02:55:50;18.27;;;11.93;;
32535;SDS011;18974;50.838;4.636;2023-09-18T02:58:17;28.23;;;11.73;;
32535;SDS011;18974;50.838;4.636;2023-09-18T03:00:44;23.65;;;11.35;;
32535;SDS011;18974;50.838;4.636;2023-09-18T03:03:11;14.73;;;11.30;;
32535;SDS011;18974;50.838;4.636;2023-09-18T03:05:38;20.02;;;12.00;;
32535;SDS011;18974;50.838;4.636;2023-09-18T03:08:04;21.63;;;10.80;;
32535;SDS011;18974;50.838;4.636;2023-09-18T03:10:33;16.52;;;10.77;;
32535;SDS011;18974;50.838;4.636;2023-09-18T03:13:00;17.38;;;9.95;;
32535;SDS011;18974;50.838;4.636;2023-09-18T03:15:26;14.25;;;9.30;;
32535;SDS011;18974;50.838;4.636;2023-09-18T03:17:52;12.98;;;9.82;;
32535;SDS011;18974;50.838;4.636;2023-09-18T03:20:18;15.65;;;9.38;;
32535;SDS011;18974;50.838;4.636;2023-09-18T03:22:46;11.88;;;9.10;;
32535;SDS011;18974;50.838;4.636;2023-09-18T03:25:12;17.90;;;9.18;;
32535;SDS011;18974;50.838;4.636;2023-09-18T03:27:37;11.48;;;8.10;;
32535;SDS011;18974;50.838;4.636;2023-09-18T03:30:03;15.45;;;7.88;;
32535;SDS011;18974;50.838;4.636;2023-09-18T03:32:29;10.73;;;7.43;;
32535;SDS011;18974;50.838;4.636;2023-09-18T03:34:55;12.85;;;7.22;;
32535;SDS011;18974;50.838;4.636;2023-09-18T03:37:21;14.57;;;7.00;;
32535;SDS011;18974;50.838;4.636;2023-09-18T03:39:46;11.55;;;6.43;;
32535;SDS011;18974;50.838;4.636;2023-09-18T03:42:12;17.83;;;7.05;;
32535;SDS011;18974;50.838;4.636;2023-09-18T03:44:37;13.20;;;6.47;;
32535;SDS011;18974;50.838;4.636;2023-09-18T03:47:03;17.00;;;6.90;;
32535;SDS011;18974;50.838;4.636;2023-09-18T03:49:29;7.70;;;5.78;;
32535;SDS011;18974;50.838;4.636;2023-09-18T03:51:55;11.13;;;6.50;;
32535;SDS011;18974;50.838;4.636;2023-09-18T03:54:21;13.05;;;5.63;;
32535;SDS011;18974;50.838;4.636;2023-09-18T03:56:47;10.32;;;5.32;;
32535;SDS011;18974;50.838;4.636;2023-09-18T03:59:13;11.85;;;5.90;;
32535;SDS011;18974;50.838;4.636;2023-09-18T04:01:38;8.95;;;5.45;;
32535;SDS011;18974;50.838;4.636;2023-09-18T04:04:04;11.75;;;4.68;;
32535;SDS011;18974;50.838;4.636;2023-09-18T04:06:43;9.75;;;4.35;;
32535;SDS011;18974;50.838;4.636;2023-09-18T04:09:11;6.97;;;4.03;;
32535;SDS011;18974;50.838;4.636;2023-09-18T04:11:37;7.05;;;4.28;;
32535;SDS011;18974;50.838;4.636;2023-09-18T04:14:03;10.95;;;3.83;;
32535;SDS011;18974;50.838;4.636;2023-09-18T04:16:28;5.03;;;3.05;;
32535;SDS011;18974;50.838;4.636;2023-09-18T04:19:00;10.90;;;3.00;;
32535;SDS011;18974;50.838;4.636;2023-09-18T04:21:26;7.80;;;2.70;;
32535;SDS011;18974;50.838;4.636;2023-09-18T04:23:52;5.93;;;2.75;;
32535;SDS011;18974;50.838;4.636;2023-09-18T04:26:22;6.22;;;2.15;;
32535;SDS011;18974;50.838;4.636;2023-09-18T04:28:48;5.90;;;2.72;;
32535;SDS011;18974;50.838;4.636;2023-09-18T04:31:14;6.35;;;2.33;;
32535;SDS011;18974;50.838;4.636;2023-09-18T04:33:41;6.22;;;2.47;;
32535;SDS011;18974;50.838;4.636;2023-09-18T04:36:07;4.05;;;1.77;;
32535;SDS011;18974;50.838;4.636;2023-09-18T04:38:33;4.32;;;2.25;;
32535;SDS011;18974;50.838;4.636;2023-09-18T04:40:59;5.43;;;2.20;;
32535;SDS011;18974;50.838;4.636;2023-09-18T04:43:25;3.10;;;2.17;;
32535;SDS011;18974;50.838;4.636;2023-09-18T04:45:51;7.30;;;2.30;;
32535;SDS011;18974;50.838;4.636;2023-09-18T04:48:17;5.70;;;2.00;;
32535;SDS011;18974;50.838;4.636;2023-09-18T04:50:43;3.38;;;1.77;;
32535;SDS011;18974;50.838;4.636;2023-09-18T04:53:08;3.35;;;1.77;;
32535;SDS011;18974;50.838;4.636;2023-09-18T04:55:34;3.83;;;2.13;;
32535;SDS011;18974;50.838;4.636;2023-09-18T04:58:00;5.45;;;2.20;;
32535;SDS011;18974;50.838;4.636;2023-09-18T05:00:26;8.77;;;2.08;;
32535;SDS011;18974;50.838;4.636;2023-09-18T05:02:54;4.45;;;2.15;;
32535;SDS011;18974;50.838;4.636;2023-09-18T05:05:20;6.30;;;2.42;;
32535;SDS011;18974;50.838;4.636;2023-09-18T05:07:45;4.40;;;2.25;;
32535;SDS011;18974;50.838;4.636;2023-09-18T05:10:11;9.75;;;2.83;;
32535;SDS011;18974;50.838;4.636;2023-09-18T05:12:38;5.10;;;1.85;;
32535;SDS011;18974;50.838;4.636;2023-09-18T05:15:04;2.78;;;2.30;;
32535;SDS011;18974;50.838;4.636;2023-09-18T05:17:44;7.10;;;2.38;;
32535;SDS011;18974;50.838;4.636;2023-09-18T05:20:17;4.60;;;2.10;;
32535;SDS011;18974;50.838;4.636;2023-09-18T05:22:43;4.05;;;2.03;;
32535;SDS011;18974;50.838;4.636;2023-09-18T05:25:10;8.15;;;2.17;;
32535;SDS011;18974;50.838;4.636;2023-09-18T05:27:36;5.75;;;2.20;;
32535;SDS011;18974;50.838;4.636;2023-09-18T05:30:13;3.42;;;1.90;;
32535;SDS011;18974;50.838;4.636;2023-09-18T05:32:41;7.80;;;2.28;;
32535;SDS011;18974;50.838;4.636;2023-09-18T05:35:07;5.15;;;2.20;;
32535;SDS011;18974;50.838;4.636;2023-09-18T05:37:36;6.70;;;2.60;;
32535;SDS011;18974;50.838;4.636;2023-09-18T05:40:05;5.15;;;2.10;;
32535;SDS011;18974;50.838;4.636;2023-09-18T05:42:34;4.10;;;1.98;;
32535;SDS011;18974;50.838;4.636;2023-09-18T05:45:04;5.25;;;2.20;;
32535;SDS011;18974;50.838;4.636;2023-09-18T05:47:33;5.97;;;2.00;;
32535;SDS011;18974;50.838;4.636;2023-09-18T05:50:01;5.78;;;2.00;;
32535;SDS011;18974;50.838;4.636;2023-09-18T05:52:29;8.52;;;2.25;;
32535;SDS011;18974;50.838;4.636;2023-09-18T05:54:54;8.27;;;2.15;;
32535;SDS011;18974;50.838;4.636;2023-09-18T05:57:20;5.45;;;2.10;;
32535;SDS011;18974;50.838;4.636;2023-09-18T05:59:46;6.45;;;2.45;;
32535;SDS011;18974;50.838;4.636;2023-09-18T06:02:11;5.22;;;1.63;;
32535;SDS011;18974;50.838;4.636;2023-09-18T06:04:37;4.70;;;1.60;;
32535;SDS011;18974;50.838;4.636;2023-09-18T06:07:03;5.05;;;2.10;;
32535;SDS011;18974;50.838;4.636;2023-09-18T06:09:29;5.05;;;1.73;;
32535;SDS011;18974;50.838;4.636;2023-09-18T06:11:54;4.07;;;1.90;;
32535;SDS011;18974;50.838;4.636;2023-09-18T06:14:20;3.97;;;2.00;;
32535;SDS011;18974;50.838;4.636;2023-09-18T06:16:46;5.18;;;2.22;;
32535;SDS011;18974;50.838;4.636;2023-09-18T06:19:12;4.68;;;1.88;;
32535;SDS011;18974;50.838;4.636;2023-09-18T06:21:38;4.85;;;1.80;;
32535;SDS011;18974;50.838;4.636;2023-09-18T06:24:04;5.13;;;2.33;;
32535;SDS011;18974;50.838;4.636;2023-09-18T06:26:31;4.88;;;1.83;;
32535;SDS011;18974;50.838;4.636;2023-09-18T06:28:56;4.63;;;2.03;;
32535;SDS011;18974;50.838;4.636;2023-09-18T06:31:22;7.80;;;2.13;;
32535;SDS011;18974;50.838;4.636;2023-09-18T06:33:48;6.38;;;2.17;;
32535;SDS011;18974;50.838;4.636;2023-09-18T06:36:15;5.13;;;1.83;;
32535;SDS011;18974;50.838;4.636;2023-09-18T06:38:41;6.10;;;2.10;;
32535;SDS011;18974;50.838;4.636;2023-09-18T06:41:06;5.13;;;1.80;;
32535;SDS011;18974;50.838;4.636;2023-09-18T06:43:32;3.83;;;1.45;;
32535;SDS011;18974;50.838;4.636;2023-09-18T06:45:58;3.47;;;1.70;;
32535;SDS011;18974;50.838;4.636;2023-09-18T06:48:24;4.72;;;1.90;;
32535;SDS011;18974;50.838;4.636;2023-09-18T06:50:49;5.35;;;1.60;;
32535;SDS011;18974;50.838;4.636;2023-09-18T06:53:15;5.38;;;1.73;;
32535;SDS011;18974;50.838;4.636;2023-09-18T06:55:41;5.78;;;1.98;;
32535;SDS011;18974;50.838;4.636;2023-09-18T06:58:07;7.93;;;2.25;;
32535;SDS011;18974;50.838;4.636;2023-09-18T07:00:32;5.85;;;1.98;;
32535;SDS011;18974;50.838;4.636;2023-09-18T07:02:58;7.00;;;1.98;;
32535;SDS011;18974;50.838;4.636;2023-09-18T07:05:24;4.03;;;2.00;;
32535;SDS011;18974;50.838;4.636;2023-09-18T07:07:49;2.67;;;1.95;;
32535;SDS011;18974;50.838;4.636;2023-09-18T07:10:15;3.72;;;1.85;;
32535;SDS011;18974;50.838;4.636;2023-09-18T07:12:41;4.22;;;2.17;;
32535;SDS011;18974;50.838;4.636;2023-09-18T07:15:06;4.07;;;2.00;;
32535;SDS011;18974;50.838;4.636;2023-09-18T07:17:32;6.25;;;1.98;;
32535;SDS011;18974;50.838;4.636;2023-09-18T07:19:59;4.53;;;2.30;;
32535;SDS011;18974;50.838;4.636;2023-09-18T07:22:26;4.00;;;2.20;;
32535;SDS011;18974;50.838;4.636;2023-09-18T07:24:51;5.38;;;2.00;;
32535;SDS011;18974;50.838;4.636;2023-09-18T07:27:17;4.72;;;2.40;;
32535;SDS011;18974;50.838;4.636;2023-09-18T07:29:43;4.90;;;2.17;;
32535;SDS011;18974;50.838;4.636;2023-09-18T07:32:09;13.30;;;2.40;;
32535;SDS011;18974;50.838;4.636;2023-09-18T07:34:34;15.13;;;2.40;;
32535;SDS011;18974;50.838;4.636;2023-09-18T07:37:00;6.10;;;2.33;;
32535;SDS011;18974;50.838;4.636;2023-09-18T07:39:26;7.28;;;2.53;;
32535;SDS011;18974;50.838;4.636;2023-09-18T07:41:52;4.28;;;2.33;;
32535;SDS011;18974;50.838;4.636;2023-09-18T07:44:20;6.25;;;2.50;;
32535;SDS011;18974;50.838;4.636;2023-09-18T07:46:46;6.57;;;2.15;;
32535;SDS011;18974;50.838;4.636;2023-09-18T07:49:13;6.57;;;2.53;;
32535;SDS011;18974;50.838;4.636;2023-09-18T07:51:39;7.00;;;2.38;;
32535;SDS011;18974;50.838;4.636;2023-09-18T07:54:06;5.50;;;2.30;;
32535;SDS011;18974;50.838;4.636;2023-09-18T07:56:32;7.90;;;2.40;;
32535;SDS011;18974;50.838;4.636;2023-09-18T07:58:59;4.78;;;2.20;;
32535;SDS011;18974;50.838;4.636;2023-09-18T08:01:25;6.78;;;2.33;;
32535;SDS011;18974;50.838;4.636;2023-09-18T08:03:51;5.70;;;2.17;;
32535;SDS011;18974;50.838;4.636;2023-09-18T08:06:17;5.65;;;2.42;;
32535;SDS011;18974;50.838;4.636;2023-09-18T08:08:44;8.80;;;2.40;;
32535;SDS011;18974;50.838;4.636;2023-09-18T08:11:10;6.07;;;2.50;;
32535;SDS011;18974;50.838;4.636;2023-09-18T08:13:36;6.82;;;2.35;;
32535;SDS011;18974;50.838;4.636;2023-09-18T08:16:05;9.52;;;2.85;;
32535;SDS011;18974;50.838;4.636;2023-09-18T08:18:31;4.10;;;2.40;;
32535;SDS011;18974;50.838;4.636;2023-09-18T08:20:57;5.00;;;2.30;;
32535;SDS011;18974;50.838;4.636;2023-09-18T08:23:23;4.75;;;2.63;;
32535;SDS011;18974;50.838;4.636;2023-09-18T08:25:49;4.95;;;2.10;;
32535;SDS011;18974;50.838;4.636;2023-09-18T08:28:16;6.95;;;2.35;;
32535;SDS011;18974;50.838;4.636;2023-09-18T08:30:42;5.68;;;2.40;;
32535;SDS011;18974;50.838;4.636;2023-09-18T08:33:12;7.45;;;2.88;;
32535;SDS011;18974;50.838;4.636;2023-09-18T08:35:38;7.65;;;2.65;;
32535;SDS011;18974;50.838;4.636;2023-09-18T08:38:05;4.05;;;2.33;;
32535;SDS011;18974;50.838;4.636;2023-09-18T08:40:31;6.68;;;2.60;;
32535;SDS011;18974;50.838;4.636;2023-09-18T08:42:57;5.18;;;2.58;;
32535;SDS011;18974;50.838;4.636;2023-09-18T08:45:35;7.30;;;2.90;;
32535;SDS011;18974;50.838;4.636;2023-09-18T08:48:08;7.72;;;3.20;;
32535;SDS011;18974;50.838;4.636;2023-09-18T08:50:34;7.03;;;2.40;;
32535;SDS011;18974;50.838;4.636;2023-09-18T08:53:01;9.25;;;2.80;;
32535;SDS011;18974;50.838;4.636;2023-09-18T08:55:28;9.27;;;3.00;;
32535;SDS011;18974;50.838;4.636;2023-09-18T08:57:54;6.38;;;2.58;;
32535;SDS011;18974;50.838;4.636;2023-09-18T09:00:23;9.95;;;2.85;;
32535;SDS011;18974;50.838;4.636;2023-09-18T09:02:48;8.02;;;3.85;;
32535;SDS011;18974;50.838;4.636;2023-09-18T09:05:16;10.95;;;3.08;;
32535;SDS011;18974;50.838;4.636;2023-09-18T09:07:42;11.65;;;3.38;;
32535;SDS011;18974;50.838;4.636;2023-09-18T09:10:07;7.45;;;2.72;;
32535;SDS011;18974;50.838;4.636;2023-09-18T09:15:32;9.18;;;3.13;;
32535;SDS011;18974;50.838;4.636;2023-09-18T09:18:11;6.95;;;2.80;;
32535;SDS011;18974;50.838;4.636;2023-09-18T09:20:37;7.88;;;2.90;;
32535;SDS011;18974;50.838;4.636;2023-09-18T09:23:03;7.88;;;2.88;;
32535;SDS011;18974;50.838;4.636;2023-09-18T09:25:32;5.80;;;2.95;;
32535;SDS011;18974;50.838;4.636;2023-09-18T09:28:02;11.50;;;3.38;;
32535;SDS011;18974;50.838;4.636;2023-09-18T09:30:30;9.85;;;2.88;;
32535;SDS011;18974;50.838;4.636;2023-09-18T09:32:57;9.73;;;2.58;;
32535;SDS011;18974;50.838;4.636;2023-09-18T09:37:52;6.68;;;3.15;;
32535;SDS011;18974;50.838;4.636;2023-09-18T09:40:21;8.93;;;3.33;;
32535;SDS011;18974;50.838;4.636;2023-09-18T09:42:51;11.40;;;3.55;;
32535;SDS011;18974;50.838;4.636;2023-09-18T09:45:26;11.73;;;2.97;;
32535;SDS011;18974;50.838;4.636;2023-09-18T09:47:54;15.38;;;3.47;;
32535;SDS011;18974;50.838;4.636;2023-09-18T09:50:21;7.63;;;3.05;;
32535;SDS011;18974;50.838;4.636;2023-09-18T09:52:51;10.18;;;2.75;;
32535;SDS011;18974;50.838;4.636;2023-09-18T09:55:22;5.82;;;2.95;;
32535;SDS011;18974;50.838;4.636;2023-09-18T10:00:32;7.22;;;2.80;;
32535;SDS011;18974;50.838;4.636;2023-09-18T10:03:09;11.75;;;3.03;;
32535;SDS011;18974;50.838;4.636;2023-09-18T10:05:37;5.95;;;2.58;;
32535;SDS011;18974;50.838;4.636;2023-09-18T10:08:23;9.73;;;2.75;;
32535;SDS011;18974;50.838;4.636;2023-09-18T10:10:54;7.95;;;2.80;;
32535;SDS011;18974;50.838;4.636;2023-09-18T10:13:32;6.32;;;2.58;;
32535;SDS011;18974;50.838;4.636;2023-09-18T10:16:04;10.65;;;3.33;;
32535;SDS011;18974;50.838;4.636;2023-09-18T10:24:17;5.68;;;2.90;;
32535;SDS011;18974;50.838;4.636;2023-09-18T10:26:58;8.23;;;2.75;;
32535;SDS011;18974;50.838;4.636;2023-09-18T10:29:28;10.15;;;3.28;;
32535;SDS011;18974;50.838;4.636;2023-09-18T10:31:55;7.85;;;2.80;;
32535;SDS011;18974;50.838;4.636;2023-09-18T10:34:21;7.38;;;2.80;;
32535;SDS011;18974;50.838;4.636;2023-09-18T10:36:49;5.38;;;2.60;;
32535;SDS011;18974;50.838;4.636;2023-09-18T10:39:16;4.72;;;2.47;;
32535;SDS011;18974;50.838;4.636;2023-09-18T10:41:49;10.10;;;2.97;;
32535;SDS011;18974;50.838;4.636;2023-09-18T10:44:17;10.38;;;2.50;;
32535;SDS011;18974;50.838;4.636;2023-09-18T10:46:48;7.65;;;2.47;;
32535;SDS011;18974;50.838;4.636;2023-09-18T10:49:15;5.75;;;2.83;;
32535;SDS011;18974;50.838;4.636;2023-09-18T10:51:41;8.85;;;2.95;;
32535;SDS011;18974;50.838;4.636;2023-09-18T10:54:09;7.70;;;2.15;;
32535;SDS011;18974;50.838;4.636;2023-09-18T10:56:35;7.78;;;2.40;;
32535;SDS011;18974;50.838;4.636;2023-09-18T10:59:02;5.65;;;3.03;;
32535;SDS011;18974;50.838;4.636;2023-09-18T11:01:32;6.35;;;2.63;;
32535;SDS011;18974;50.838;4.636;2023-09-18T11:04:01;6.30;;;2.58;;
32535;SDS011;18974;50.838;4.636;2023-09-18T11:09:28;5.50;;;1.90;;
32535;SDS011;18974;50.838;4.636;2023-09-18T11:14:45;7.00;;;2.60;;
32535;SDS011;18974;50.838;4.636;2023-09-18T11:17:39;7.72;;;2.88;;
32535;SDS011;18974;50.838;4.636;2023-09-18T11:20:06;6.43;;;2.45;;
32535;SDS011;18974;50.838;4.636;2023-09-18T11:22:46;4.88;;;2.35;;
32535;SDS011;18974;50.838;4.636;2023-09-18T11:28:04;8.10;;;2.47;;
32535;SDS011;18974;50.838;4.636;2023-09-18T11:30:34;6.47;;;2.30;;
32535;SDS011;18974;50.838;4.636;2023-09-18T11:33:04;3.72;;;2.20;;
32535;SDS011;18974;50.838;4.636;2023-09-18T11:35:34;5.57;;;2.50;;
32535;SDS011;18974;50.838;4.636;2023-09-18T11:38:10;4.65;;;2.22;;
32535;SDS011;18974;50.838;4.636;2023-09-18T11:40:37;6.13;;;2.72;;
32535;SDS011;18974;50.838;4.636;2023-09-18T11:45:51;5.47;;;2.40;;
32535;SDS011;18974;50.838;4.636;2023-09-18T11:48:19;6.70;;;2.95;;
32535;SDS011;18974;50.838;4.636;2023-09-18T11:50:46;7.18;;;2.55;;
32535;SDS011;18974;50.838;4.636;2023-09-18T11:53:16;6.45;;;2.90;;
32535;SDS011;18974;50.838;4.636;2023-09-18T11:55:43;6.88;;;2.97;;
32535;SDS011;18974;50.838;4.636;2023-09-18T11:58:09;9.63;;;2.53;;
32535;SDS011;18974;50.838;4.636;2023-09-18T12:00:35;5.85;;;2.67;;
32535;SDS011;18974;50.838;4.636;2023-09-18T12:03:21;6.80;;;2.90;;
32535;SDS011;18974;50.838;4.636;2023-09-18T12:05:54;6.45;;;2.72;;
32535;SDS011;18974;50.838;4.636;2023-09-18T12:08:22;8.20;;;2.55;;
32535;SDS011;18974;50.838;4.636;2023-09-18T12:10:51;6.25;;;2.55;;
32535;SDS011;18974;50.838;4.636;2023-09-18T12:13:18;5.03;;;2.35;;
32535;SDS011;18974;50.838;4.636;2023-09-18T12:15:43;6.82;;;2.95;;
32535;SDS011;18974;50.838;4.636;2023-09-18T12:18:10;6.40;;;2.17;;
32535;SDS011;18974;50.838;4.636;2023-09-18T12:20:49;7.68;;;2.63;;
32535;SDS011;18974;50.838;4.636;2023-09-18T12:23:15;6.65;;;2.80;;
32535;SDS011;18974;50.838;4.636;2023-09-18T12:25:45;4.88;;;2.47;;
32535;SDS011;18974;50.838;4.636;2023-09-18T12:28:13;5.30;;;2.30;;
32535;SDS011;18974;50.838;4.636;2023-09-18T12:30:40;4.35;;;2.08;;
32535;SDS011;18974;50.838;4.636;2023-09-18T12:33:06;6.82;;;2.00;;
32535;SDS011;18974;50.838;4.636;2023-09-18T12:35:32;16.80;;;3.97;;
32535;SDS011;18974;50.838;4.636;2023-09-18T12:37:58;6.38;;;2.55;;
32535;SDS011;18974;50.838;4.636;2023-09-18T12:40:29;4.85;;;2.22;;
32535;SDS011;18974;50.838;4.636;2023-09-18T12:42:57;8.77;;;2.33;;
32535;SDS011;18974;50.838;4.636;2023-09-18T12:45:24;12.15;;;3.28;;
32535;SDS011;18974;50.838;4.636;2023-09-18T12:47:51;4.78;;;2.22;;
32535;SDS011;18974;50.838;4.636;2023-09-18T12:50:19;8.88;;;2.55;;
32535;SDS011;18974;50.838;4.636;2023-09-18T12:52:44;8.10;;;2.10;;
32535;SDS011;18974;50.838;4.636;2023-09-18T12:55:26;41.45;;;7.18;;
32535;SDS011;18974;50.838;4.636;2023-09-18T12:57:52;5.00;;;2.20;;
32535;SDS011;18974;50.838;4.636;2023-09-18T13:00:19;6.88;;;2.45;;
32535;SDS011;18974;50.838;4.636;2023-09-18T13:02:51;38.13;;;8.48;;
32535;SDS011;18974;50.838;4.636;2023-09-18T13:05:20;75.45;;;12.73;;
32535;SDS011;18974;50.838;4.636;2023-09-18T13:07:50;6.47;;;2.22;;
32535;SDS011;18974;50.838;4.636;2023-09-18T13:10:15;25.42;;;5.63;;
32535;SDS011;18974;50.838;4.636;2023-09-18T13:12:51;14.68;;;3.17;;
32535;SDS011;18974;50.838;4.636;2023-09-18T13:15:30;7.38;;;2.47;;
32535;SDS011;18974;50.838;4.636;2023-09-18T13:17:58;3.88;;;1.98;;
32535;SDS011;18974;50.838;4.636;2023-09-18T13:20:34;4.90;;;1.52;;
32535;SDS011;18974;50.838;4.636;2023-09-18T13:23:00;4.80;;;2.13;;
32535;SDS011;18974;50.838;4.636;2023-09-18T13:25:49;5.40;;;1.95;;
32535;SDS011;18974;50.838;4.636;2023-09-18T13:33:07;6.15;;;2.00;;
32535;SDS011;18974;50.838;4.636;2023-09-18T13:35:38;5.18;;;1.90;;
32535;SDS011;18974;50.838;4.636;2023-09-18T13:38:05;4.72;;;1.80;;
32535;SDS011;18974;50.838;4.636;2023-09-18T13:40:35;5.65;;;2.42;;
32535;SDS011;18974;50.838;4.636;2023-09-18T13:43:02;3.25;;;1.73;;
32535;SDS011;18974;50.838;4.636;2023-09-18T13:45:29;13.73;;;2.15;;
32535;SDS011;18974;50.838;4.636;2023-09-18T13:47:55;6.68;;;2.10;;
32535;SDS011;18974;50.838;4.636;2023-09-18T13:50:21;8.55;;;1.85;;
32535;SDS011;18974;50.838;4.636;2023-09-18T13:52:46;6.93;;;2.30;;
32535;SDS011;18974;50.838;4.636;2023-09-18T13:55:12;6.72;;;2.00;;
32535;SDS011;18974;50.838;4.636;2023-09-18T13:57:38;4.57;;;1.75;;
32535;SDS011;18974;50.838;4.636;2023-09-18T14:00:07;7.28;;;1.95;;
32535;SDS011;18974;50.838;4.636;2023-09-18T14:02:36;8.32;;;1.67;;
32535;SDS011;18974;50.838;4.636;2023-09-18T14:05:03;5.13;;;1.80;;
32535;SDS011;18974;50.838;4.636;2023-09-18T14:07:29;4.63;;;2.17;;
32535;SDS011;18974;50.838;4.636;2023-09-18T14:09:55;6.80;;;2.35;;
32535;SDS011;18974;50.838;4.636;2023-09-18T14:12:24;6.10;;;2.00;;
32535;SDS011;18974;50.838;4.636;2023-09-18T14:14:50;6.80;;;2.25;;
32535;SDS011;18974;50.838;4.636;2023-09-18T14:17:16;6.47;;;1.92;;
32535;SDS011;18974;50.838;4.636;2023-09-18T14:19:43;8.45;;;1.75;;
32535;SDS011;18974;50.838;4.636;2023-09-18T14:22:12;9.90;;;1.60;;
32535;SDS011;18974;50.838;4.636;2023-09-18T14:24:39;7.50;;;2.03;;
32535;SDS011;18974;50.838;4.636;2023-09-18T14:27:05;5.57;;;1.75;;
32535;SDS011;18974;50.838;4.636;2023-09-18T14:29:31;3.08;;;1.85;;
32535;SDS011;18974;50.838;4.636;2023-09-18T14:31:58;9.07;;;2.40;;
32535;SDS011;18974;50.838;4.636;2023-09-18T14:34:24;9.27;;;2.47;;
32535;SDS011;18974;50.838;4.636;2023-09-18T14:36:50;7.05;;;2.13;;
32535;SDS011;18974;50.838;4.636;2023-09-18T14:39:16;7.55;;;2.15;;
32535;SDS011;18974;50.838;4.636;2023-09-18T14:41:42;7.38;;;1.90;;
32535;SDS011;18974;50.838;4.636;2023-09-18T14:44:08;6.45;;;1.83;;
32535;SDS011;18974;50.838;4.636;2023-09-18T14:46:37;9.40;;;2.22;;
32535;SDS011;18974;50.838;4.636;2023-09-18T14:49:04;6.28;;;1.88;;
32535;SDS011;18974;50.838;4.636;2023-09-18T14:51:30;6.43;;;2.10;;
32535;SDS011;18974;50.838;4.636;2023-09-18T14:53:57;8.48;;;2.33;;
32535;SDS011;18974;50.838;4.636;2023-09-18T14:56:23;7.10;;;2.00;;
32535;SDS011;18974;50.838;4.636;2023-09-18T14:58:49;6.72;;;1.67;;
32535;SDS011;18974;50.838;4.636;2023-09-18T15:01:17;8.40;;;2.50;;
32535;SDS011;18974;50.838;4.636;2023-09-18T15:03:43;9.90;;;2.20;;
32535;SDS011;18974;50.838;4.636;2023-09-18T15:06:14;5.78;;;2.00;;
32535;SDS011;18974;50.838;4.636;2023-09-18T15:08:40;5.78;;;2.30;;
32535;SDS011;18974;50.838;4.636;2023-09-18T15:11:05;21.73;;;4.03;;
32535;SDS011;18974;50.838;4.636;2023-09-18T15:13:31;25.42;;;4.55;;